sensor_id;sensor_type;location;lat;lon;timestamp;P1;durP1;ratioP1;P2;durP2;ratioP2
7605;SDS011;3844;53.360;9.738;2023-02-28T00:00:57;6.70;;;2.45;;
7605;SDS011;3844;53.360;9.738;2023-02-28T00:02:58;5.90;;;2.47;;
7605;SDS011;3844;53.360;9.738;2023-02-28T00:04:59;7.32;;;2.40;;
7605;SDS011;3844;53.360;9.738;2023-02-28T00:07:01;5.32;;;2.45;;
7605;SDS011;3844;53.360;9.738;2023-02-28T00:09:01;6.15;;;2.40;;
7605;SDS011;3844;53.360;9.738;2023-02-28T00:11:03;5.85;;;2.30;;
7605;SDS011;3844;53.360;9.738;2023-02-28T00:13:06;5.68;;;2.60;;
7605;SDS011;3844;53.360;9.738;2023-02-28T00:15:08;6.18;;;2.33;;
7605;SDS011;3844;53.360;9.738;2023-02-28T00:17:13;5.82;;;2.38;;
7605;SDS011;3844;53.360;9.738;2023-02-28T00:21:15;6.10;;;2.50;;
7605;SDS011;3844;53.360;9.738;2023-02-28T00:23:16;5.85;;;2.33;;
7605;SDS011;3844;53.360;9.738;2023-02-28T00:25:18;5.50;;;2.40;;
7605;SDS011;3844;53.360;9.738;2023-02-28T00:27:20;5.95;;;2.35;;
7605;SDS011;3844;53.360;9.738;2023-02-28T00:29:21;6.18;;;2.50;;
7605;SDS011;3844;53.360;9.738;2023-02-28T00:31:22;5.78;;;2.50;;
7605;SDS011;3844;53.360;9.738;2023-02-28T00:33:22;6.28;;;2.50;;
7605;SDS011;3844;53.360;9.738;2023-02-28T00:35:23;5.88;;;2.47;;
7605;SDS011;3844;53.360;9.738;2023-02-28T00:37:24;6.57;;;2.50;;
7605;SDS011;3844;53.360;9.738;2023-02-28T00:39:24;5.68;;;2.22;;
7605;SDS011;3844;53.360;9.738;2023-02-28T00:41:25;5.28;;;2.50;;
7605;SDS011;3844;53.360;9.738;2023-02-28T00:43:26;5.95;;;2.40;;
7605;SDS011;3844;53.360;9.738;2023-02-28T00:45:27;6.20;;;2.35;;
7605;SDS011;3844;53.360;9.738;2023-02-28T00:47:28;6.20;;;2.55;;
7605;SDS011;3844;53.360;9.738;2023-02-28T00:49:29;5.60;;;2.38;;
7605;SDS011;3844;53.360;9.738;2023-02-28T00:51:29;6.13;;;2.50;;
7605;SDS011;3844;53.360;9.738;2023-02-28T00:53:30;4.80;;;2.28;;
7605;SDS011;3844;53.360;9.738;2023-02-28T00:55:32;5.15;;;2.40;;
7605;SDS011;3844;53.360;9.738;2023-02-28T00:57:33;6.25;;;2.30;;
7605;SDS011;3844;53.360;9.738;2023-02-28T00:59:34;6.03;;;2.40;;
7605;SDS011;3844;53.360;9.738;2023-02-28T01:01:35;5.93;;;2.65;;
7605;SDS011;3844;53.360;9.738;2023-02-28T01:03:35;6.32;;;2.47;;
7605;SDS011;3844;53.360;9.738;2023-02-28T01:05:36;5.15;;;2.25;;
7605;SDS011;3844;53.360;9.738;2023-02-28T01:07:37;4.70;;;2.00;;
7605;SDS011;3844;53.360;9.738;2023-02-28T01:09:38;6.43;;;2.30;;
7605;SDS011;3844;53.360;9.738;2023-02-28T01:11:39;6.07;;;2.60;;
7605;SDS011;3844;53.360;9.738;2023-02-28T01:13:41;5.60;;;2.50;;
7605;SDS011;3844;53.360;9.738;2023-02-28T01:15:46;6.25;;;2.70;;
7605;SDS011;3844;53.360;9.738;2023-02-28T01:17:51;5.43;;;2.38;;
7605;SDS011;3844;53.360;9.738;2023-02-28T01:19:53;6.85;;;2.63;;
7605;SDS011;3844;53.360;9.738;2023-02-28T01:21:55;6.07;;;2.75;;
7605;SDS011;3844;53.360;9.738;2023-02-28T01:23:56;6.60;;;2.50;;
7605;SDS011;3844;53.360;9.738;2023-02-28T01:25:58;6.25;;;2.70;;
7605;SDS011;3844;53.360;9.738;2023-02-28T01:28:07;6.22;;;2.70;;
7605;SDS011;3844;53.360;9.738;2023-02-28T01:30:08;5.60;;;2.72;;
7605;SDS011;3844;53.360;9.738;2023-02-28T01:32:10;5.45;;;2.38;;
7605;SDS011;3844;53.360;9.738;2023-02-28T01:34:13;6.40;;;2.63;;
7605;SDS011;3844;53.360;9.738;2023-02-28T01:36:16;6.43;;;2.50;;
7605;SDS011;3844;53.360;9.738;2023-02-28T01:38:19;6.70;;;2.70;;
7605;SDS011;3844;53.360;9.738;2023-02-28T01:40:20;6.47;;;2.30;;
7605;SDS011;3844;53.360;9.738;2023-02-28T01:42:20;7.15;;;2.70;;
7605;SDS011;3844;53.360;9.738;2023-02-28T01:46:59;6.60;;;2.75;;
7605;SDS011;3844;53.360;9.738;2023-02-28T01:49:07;6.03;;;2.47;;
7605;SDS011;3844;53.360;9.738;2023-02-28T01:51:20;6.20;;;2.55;;
7605;SDS011;3844;53.360;9.738;2023-02-28T01:53:29;5.57;;;2.42;;
7605;SDS011;3844;53.360;9.738;2023-02-28T01:55:33;5.70;;;2.50;;
7605;SDS011;3844;53.360;9.738;2023-02-28T01:57:36;5.80;;;2.40;;
7605;SDS011;3844;53.360;9.738;2023-02-28T01:59:42;8.20;;;2.65;;
7605;SDS011;3844;53.360;9.738;2023-02-28T02:01:48;5.32;;;2.42;;
7605;SDS011;3844;53.360;9.738;2023-02-28T02:04:01;6.05;;;2.40;;
7605;SDS011;3844;53.360;9.738;2023-02-28T02:06:03;6.07;;;2.22;;
7605;SDS011;3844;53.360;9.738;2023-02-28T02:08:05;6.13;;;2.50;;
7605;SDS011;3844;53.360;9.738;2023-02-28T02:10:24;6.75;;;2.70;;
7605;SDS011;3844;53.360;9.738;2023-02-28T02:14:55;6.03;;;2.55;;
7605;SDS011;3844;53.360;9.738;2023-02-28T02:17:16;5.97;;;2.20;;
7605;SDS011;3844;53.360;9.738;2023-02-28T02:36:42;5.03;;;2.40;;
7605;SDS011;3844;53.360;9.738;2023-02-28T02:43:16;6.35;;;2.10;;
7605;SDS011;3844;53.360;9.738;2023-02-28T02:45:25;6.35;;;2.22;;
7605;SDS011;3844;53.360;9.738;2023-02-28T02:47:35;5.85;;;2.40;;
7605;SDS011;3844;53.360;9.738;2023-02-28T02:49:38;5.57;;;2.08;;
7605;SDS011;3844;53.360;9.738;2023-02-28T02:51:42;5.25;;;2.35;;
7605;SDS011;3844;53.360;9.738;2023-02-28T02:53:55;6.18;;;2.22;;
7605;SDS011;3844;53.360;9.738;2023-02-28T02:56:02;6.10;;;2.38;;
7605;SDS011;3844;53.360;9.738;2023-02-28T02:58:06;5.85;;;2.50;;
7605;SDS011;3844;53.360;9.738;2023-02-28T03:00:10;6.47;;;2.50;;
7605;SDS011;3844;53.360;9.738;2023-02-28T03:02:14;9.82;;;2.53;;
7605;SDS011;3844;53.360;9.738;2023-02-28T03:04:18;5.18;;;2.33;;
7605;SDS011;3844;53.360;9.738;2023-02-28T03:06:21;6.22;;;2.55;;
7605;SDS011;3844;53.360;9.738;2023-02-28T03:08:22;5.43;;;2.67;;
7605;SDS011;3844;53.360;9.738;2023-02-28T03:10:27;7.00;;;2.95;;
7605;SDS011;3844;53.360;9.738;2023-02-28T03:12:40;8.68;;;3.25;;
7605;SDS011;3844;53.360;9.738;2023-02-28T03:15:03;9.45;;;3.30;;
7605;SDS011;3844;53.360;9.738;2023-02-28T03:22:45;9.43;;;3.65;;
7605;SDS011;3844;53.360;9.738;2023-02-28T03:27:09;7.85;;;3.47;;
7605;SDS011;3844;53.360;9.738;2023-02-28T03:29:22;10.07;;;3.63;;
7605;SDS011;3844;53.360;9.738;2023-02-28T03:31:38;8.05;;;3.30;;
7605;SDS011;3844;53.360;9.738;2023-02-28T03:33:43;7.15;;;2.47;;
7605;SDS011;3844;53.360;9.738;2023-02-28T03:36:28;8.70;;;3.10;;
7605;SDS011;3844;53.360;9.738;2023-02-28T03:38:27;7.68;;;2.90;;
7605;SDS011;3844;53.360;9.738;2023-02-28T03:40:32;9.40;;;3.13;;
7605;SDS011;3844;53.360;9.738;2023-02-28T03:42:36;6.70;;;2.85;;
7605;SDS011;3844;53.360;9.738;2023-02-28T03:44:48;6.68;;;2.58;;
7605;SDS011;3844;53.360;9.738;2023-02-28T03:47:00;7.28;;;2.90;;
7605;SDS011;3844;53.360;9.738;2023-02-28T03:49:19;8.60;;;2.97;;
7605;SDS011;3844;53.360;9.738;2023-02-28T03:51:24;6.65;;;2.83;;
7605;SDS011;3844;53.360;9.738;2023-02-28T03:55:39;8.32;;;2.90;;
7605;SDS011;3844;53.360;9.738;2023-02-28T04:00:32;8.55;;;3.20;;
7605;SDS011;3844;53.360;9.738;2023-02-28T04:02:37;6.80;;;3.08;;
7605;SDS011;3844;53.360;9.738;2023-02-28T04:04:39;7.35;;;3.08;;
7605;SDS011;3844;53.360;9.738;2023-02-28T04:06:45;6.75;;;3.10;;
7605;SDS011;3844;53.360;9.738;2023-02-28T04:08:49;8.40;;;3.42;;
7605;SDS011;3844;53.360;9.738;2023-02-28T04:10:55;7.68;;;3.15;;
7605;SDS011;3844;53.360;9.738;2023-02-28T04:13:03;9.15;;;3.10;;
7605;SDS011;3844;53.360;9.738;2023-02-28T04:15:04;9.18;;;3.20;;
7605;SDS011;3844;53.360;9.738;2023-02-28T04:17:05;9.00;;;3.40;;
7605;SDS011;3844;53.360;9.738;2023-02-28T04:19:06;8.23;;;3.50;;
7605;SDS011;3844;53.360;9.738;2023-02-28T04:21:08;9.02;;;3.55;;
7605;SDS011;3844;53.360;9.738;2023-02-28T04:23:10;8.15;;;3.38;;
7605;SDS011;3844;53.360;9.738;2023-02-28T04:25:11;8.27;;;3.33;;
7605;SDS011;3844;53.360;9.738;2023-02-28T04:27:11;9.60;;;3.40;;
7605;SDS011;3844;53.360;9.738;2023-02-28T04:29:13;7.22;;;2.92;;
7605;SDS011;3844;53.360;9.738;2023-02-28T04:31:19;6.22;;;2.65;;
7605;SDS011;3844;53.360;9.738;2023-02-28T04:33:19;7.22;;;2.70;;
7605;SDS011;3844;53.360;9.738;2023-02-28T04:35:21;7.18;;;2.90;;
7605;SDS011;3844;53.360;9.738;2023-02-28T04:37:21;5.68;;;2.53;;
7605;SDS011;3844;53.360;9.738;2023-02-28T04:39:27;6.95;;;2.53;;
7605;SDS011;3844;53.360;9.738;2023-02-28T04:41:29;8.43;;;2.85;;
7605;SDS011;3844;53.360;9.738;2023-02-28T04:43:30;7.78;;;2.95;;
7605;SDS011;3844;53.360;9.738;2023-02-28T04:45:31;7.32;;;3.10;;
7605;SDS011;3844;53.360;9.738;2023-02-28T04:47:33;6.20;;;2.70;;
7605;SDS011;3844;53.360;9.738;2023-02-28T04:49:34;5.90;;;2.53;;
7605;SDS011;3844;53.360;9.738;2023-02-28T04:51:35;8.30;;;3.00;;
7605;SDS011;3844;53.360;9.738;2023-02-28T04:53:39;7.07;;;2.80;;
7605;SDS011;3844;53.360;9.738;2023-02-28T04:55:42;6.78;;;2.72;;
7605;SDS011;3844;53.360;9.738;2023-02-28T04:57:43;6.25;;;2.55;;
7605;SDS011;3844;53.360;9.738;2023-02-28T04:59:44;7.53;;;2.78;;
7605;SDS011;3844;53.360;9.738;2023-02-28T05:01:45;6.47;;;2.40;;
7605;SDS011;3844;53.360;9.738;2023-02-28T05:03:47;6.35;;;2.60;;
7605;SDS011;3844;53.360;9.738;2023-02-28T05:05:48;7.85;;;2.80;;
7605;SDS011;3844;53.360;9.738;2023-02-28T05:07:49;6.20;;;2.30;;
7605;SDS011;3844;53.360;9.738;2023-02-28T05:09:50;6.57;;;2.50;;
7605;SDS011;3844;53.360;9.738;2023-02-28T05:11:50;8.52;;;2.33;;
7605;SDS011;3844;53.360;9.738;2023-02-28T05:13:52;5.85;;;2.33;;
7605;SDS011;3844;53.360;9.738;2023-02-28T05:15:54;5.72;;;2.13;;
7605;SDS011;3844;53.360;9.738;2023-02-28T05:17:55;6.53;;;2.28;;
7605;SDS011;3844;53.360;9.738;2023-02-28T05:19:56;5.95;;;2.15;;
7605;SDS011;3844;53.360;9.738;2023-02-28T05:21:57;6.65;;;2.20;;
7605;SDS011;3844;53.360;9.738;2023-02-28T05:23:59;6.90;;;2.20;;
7605;SDS011;3844;53.360;9.738;2023-02-28T05:26:05;5.15;;;2.17;;
7605;SDS011;3844;53.360;9.738;2023-02-28T05:28:06;6.10;;;2.00;;
7605;SDS011;3844;53.360;9.738;2023-02-28T05:30:07;5.03;;;2.17;;
7605;SDS011;3844;53.360;9.738;2023-02-28T05:32:10;5.38;;;2.08;;
7605;SDS011;3844;53.360;9.738;2023-02-28T05:34:11;6.47;;;2.20;;
7605;SDS011;3844;53.360;9.738;2023-02-28T05:36:12;6.05;;;2.30;;
7605;SDS011;3844;53.360;9.738;2023-02-28T05:38:13;5.18;;;1.90;;
7605;SDS011;3844;53.360;9.738;2023-02-28T05:40:15;6.05;;;2.50;;
7605;SDS011;3844;53.360;9.738;2023-02-28T05:42:16;7.65;;;2.30;;
7605;SDS011;3844;53.360;9.738;2023-02-28T05:44:17;6.63;;;2.53;;
7605;SDS011;3844;53.360;9.738;2023-02-28T05:46:17;7.38;;;2.53;;
7605;SDS011;3844;53.360;9.738;2023-02-28T05:48:18;5.75;;;2.80;;
7605;SDS011;3844;53.360;9.738;2023-02-28T05:50:19;6.57;;;2.50;;
7605;SDS011;3844;53.360;9.738;2023-02-28T05:52:19;8.07;;;2.80;;
7605;SDS011;3844;53.360;9.738;2023-02-28T05:54:20;7.07;;;2.58;;
7605;SDS011;3844;53.360;9.738;2023-02-28T05:56:20;5.80;;;2.58;;
7605;SDS011;3844;53.360;9.738;2023-02-28T05:58:21;8.68;;;3.28;;
7605;SDS011;3844;53.360;9.738;2023-02-28T06:00:22;6.45;;;2.72;;
7605;SDS011;3844;53.360;9.738;2023-02-28T06:02:24;7.05;;;2.80;;
7605;SDS011;3844;53.360;9.738;2023-02-28T06:04:24;7.03;;;2.83;;
7605;SDS011;3844;53.360;9.738;2023-02-28T06:06:25;5.72;;;2.50;;
7605;SDS011;3844;53.360;9.738;2023-02-28T06:08:26;5.65;;;2.40;;
7605;SDS011;3844;53.360;9.738;2023-02-28T06:10:26;6.55;;;2.70;;
7605;SDS011;3844;53.360;9.738;2023-02-28T06:12:27;5.18;;;2.17;;
7605;SDS011;3844;53.360;9.738;2023-02-28T06:14:28;6.90;;;2.35;;
7605;SDS011;3844;53.360;9.738;2023-02-28T06:16:31;4.50;;;2.00;;
7605;SDS011;3844;53.360;9.738;2023-02-28T06:18:34;6.00;;;2.20;;
7605;SDS011;3844;53.360;9.738;2023-02-28T06:20:35;7.13;;;2.20;;
7605;SDS011;3844;53.360;9.738;2023-02-28T06:22:36;6.35;;;2.30;;
7605;SDS011;3844;53.360;9.738;2023-02-28T06:24:37;5.40;;;2.10;;
7605;SDS011;3844;53.360;9.738;2023-02-28T06:26:37;5.35;;;2.28;;
7605;SDS011;3844;53.360;9.738;2023-02-28T06:28:38;8.20;;;2.15;;
7605;SDS011;3844;53.360;9.738;2023-02-28T06:30:39;5.55;;;2.20;;
7605;SDS011;3844;53.360;9.738;2023-02-28T06:32:40;6.07;;;2.20;;
7605;SDS011;3844;53.360;9.738;2023-02-28T06:34:41;6.85;;;2.15;;
7605;SDS011;3844;53.360;9.738;2023-02-28T06:36:41;7.43;;;2.30;;
7605;SDS011;3844;53.360;9.738;2023-02-28T06:38:42;4.28;;;1.88;;
7605;SDS011;3844;53.360;9.738;2023-02-28T06:40:44;4.28;;;2.03;;
7605;SDS011;3844;53.360;9.738;2023-02-28T06:42:45;5.90;;;2.17;;
7605;SDS011;3844;53.360;9.738;2023-02-28T06:44:45;4.85;;;2.10;;
7605;SDS011;3844;53.360;9.738;2023-02-28T06:46:46;4.68;;;2.28;;
7605;SDS011;3844;53.360;9.738;2023-02-28T06:48:47;7.43;;;2.13;;
7605;SDS011;3844;53.360;9.738;2023-02-28T06:50:48;6.05;;;2.40;;
7605;SDS011;3844;53.360;9.738;2023-02-28T06:52:48;5.60;;;2.13;;
7605;SDS011;3844;53.360;9.738;2023-02-28T06:54:53;7.03;;;2.50;;
7605;SDS011;3844;53.360;9.738;2023-02-28T06:57:00;7.75;;;2.30;;
7605;SDS011;3844;53.360;9.738;2023-02-28T06:59:00;7.00;;;2.47;;
7605;SDS011;3844;53.360;9.738;2023-02-28T07:01:02;5.90;;;2.50;;
7605;SDS011;3844;53.360;9.738;2023-02-28T07:03:03;8.85;;;2.70;;
7605;SDS011;3844;53.360;9.738;2023-02-28T07:05:04;4.75;;;2.10;;
7605;SDS011;3844;53.360;9.738;2023-02-28T07:07:05;7.53;;;2.10;;
7605;SDS011;3844;53.360;9.738;2023-02-28T07:09:06;4.95;;;2.28;;
7605;SDS011;3844;53.360;9.738;2023-02-28T07:11:08;6.68;;;2.42;;
7605;SDS011;3844;53.360;9.738;2023-02-28T07:13:08;6.15;;;2.47;;
7605;SDS011;3844;53.360;9.738;2023-02-28T07:15:09;5.93;;;2.30;;
7605;SDS011;3844;53.360;9.738;2023-02-28T07:17:10;6.15;;;2.55;;
7605;SDS011;3844;53.360;9.738;2023-02-28T07:19:12;6.20;;;2.40;;
7605;SDS011;3844;53.360;9.738;2023-02-28T07:21:12;9.60;;;2.53;;
7605;SDS011;3844;53.360;9.738;2023-02-28T07:23:13;6.72;;;2.78;;
7605;SDS011;3844;53.360;9.738;2023-02-28T07:25:14;8.38;;;3.05;;
7605;SDS011;3844;53.360;9.738;2023-02-28T07:27:15;6.85;;;2.63;;
7605;SDS011;3844;53.360;9.738;2023-02-28T07:29:23;9.25;;;2.97;;
7605;SDS011;3844;53.360;9.738;2023-02-28T07:31:24;7.97;;;3.60;;
7605;SDS011;3844;53.360;9.738;2023-02-28T07:33:25;8.15;;;3.58;;
7605;SDS011;3844;53.360;9.738;2023-02-28T07:35:25;7.65;;;3.50;;
7605;SDS011;3844;53.360;9.738;2023-02-28T07:37:26;8.38;;;3.67;;
7605;SDS011;3844;53.360;9.738;2023-02-28T07:39:31;11.75;;;4.22;;
7605;SDS011;3844;53.360;9.738;2023-02-28T07:41:31;11.95;;;4.18;;
7605;SDS011;3844;53.360;9.738;2023-02-28T07:43:34;12.13;;;4.07;;
7605;SDS011;3844;53.360;9.738;2023-02-28T07:45:35;10.15;;;3.90;;
7605;SDS011;3844;53.360;9.738;2023-02-28T07:47:36;10.57;;;4.20;;
7605;SDS011;3844;53.360;9.738;2023-02-28T07:49:37;10.02;;;4.47;;
7605;SDS011;3844;53.360;9.738;2023-02-28T07:51:38;12.60;;;4.57;;
7605;SDS011;3844;53.360;9.738;2023-02-28T07:53:40;13.18;;;4.60;;
7605;SDS011;3844;53.360;9.738;2023-02-28T07:55:40;10.02;;;4.03;;
7605;SDS011;3844;53.360;9.738;2023-02-28T07:57:41;9.65;;;4.03;;
7605;SDS011;3844;53.360;9.738;2023-02-28T07:59:42;7.70;;;3.63;;
7605;SDS011;3844;53.360;9.738;2023-02-28T08:01:43;8.85;;;3.85;;
7605;SDS011;3844;53.360;9.738;2023-02-28T08:03:44;10.73;;;3.80;;
7605;SDS011;3844;53.360;9.738;2023-02-28T08:05:45;9.70;;;3.75;;
7605;SDS011;3844;53.360;9.738;2023-02-28T08:07:46;10.05;;;3.65;;
7605;SDS011;3844;53.360;9.738;2023-02-28T08:09:48;10.55;;;3.83;;
7605;SDS011;3844;53.360;9.738;2023-02-28T08:11:49;9.60;;;3.72;;
7605;SDS011;3844;53.360;9.738;2023-02-28T08:13:49;8.07;;;3.55;;
7605;SDS011;3844;53.360;9.738;2023-02-28T08:15:50;8.48;;;3.47;;
7605;SDS011;3844;53.360;9.738;2023-02-28T08:17:51;7.00;;;3.53;;
7605;SDS011;3844;53.360;9.738;2023-02-28T08:19:52;6.60;;;2.95;;
7605;SDS011;3844;53.360;9.738;2023-02-28T08:21:56;6.35;;;3.10;;
7605;SDS011;3844;53.360;9.738;2023-02-28T08:23:57;8.93;;;3.30;;
7605;SDS011;3844;53.360;9.738;2023-02-28T08:25:57;8.35;;;3.20;;
7605;SDS011;3844;53.360;9.738;2023-02-28T08:27:58;6.93;;;2.92;;
7605;SDS011;3844;53.360;9.738;2023-02-28T08:29:59;8.57;;;3.20;;
7605;SDS011;3844;53.360;9.738;2023-02-28T08:31:59;7.00;;;2.97;;
7605;SDS011;3844;53.360;9.738;2023-02-28T08:34:10;6.63;;;3.05;;
7605;SDS011;3844;53.360;9.738;2023-02-28T08:36:13;7.70;;;3.30;;
7605;SDS011;3844;53.360;9.738;2023-02-28T08:38:15;8.48;;;3.17;;
7605;SDS011;3844;53.360;9.738;2023-02-28T08:40:16;6.57;;;3.10;;
7605;SDS011;3844;53.360;9.738;2023-02-28T08:42:20;6.70;;;2.92;;
7605;SDS011;3844;53.360;9.738;2023-02-28T08:44:21;6.90;;;3.40;;
7605;SDS011;3844;53.360;9.738;2023-02-28T08:46:22;6.93;;;3.22;;
7605;SDS011;3844;53.360;9.738;2023-02-28T08:48:23;8.82;;;3.20;;
7605;SDS011;3844;53.360;9.738;2023-02-28T08:50:25;9.32;;;3.30;;
7605;SDS011;3844;53.360;9.738;2023-02-28T08:52:26;7.25;;;3.00;;
7605;SDS011;3844;53.360;9.738;2023-02-28T08:54:27;5.93;;;3.05;;
7605;SDS011;3844;53.360;9.738;2023-02-28T08:56:30;6.47;;;2.50;;
7605;SDS011;3844;53.360;9.738;2023-02-28T08:58:31;6.47;;;2.50;;
7605;SDS011;3844;53.360;9.738;2023-02-28T09:00:32;6.65;;;2.22;;
7605;SDS011;3844;53.360;9.738;2023-02-28T09:02:33;5.43;;;2.20;;
7605;SDS011;3844;53.360;9.738;2023-02-28T09:04:34;8.07;;;2.33;;
7605;SDS011;3844;53.360;9.738;2023-02-28T09:06:35;5.30;;;1.98;;
7605;SDS011;3844;53.360;9.738;2023-02-28T09:08:35;5.22;;;2.17;;
7605;SDS011;3844;53.360;9.738;2023-02-28T09:10:36;6.28;;;1.80;;
7605;SDS011;3844;53.360;9.738;2023-02-28T09:12:37;4.30;;;1.80;;
7605;SDS011;3844;53.360;9.738;2023-02-28T09:14:38;5.03;;;1.85;;
7605;SDS011;3844;53.360;9.738;2023-02-28T09:16:38;5.10;;;1.67;;
7605;SDS011;3844;53.360;9.738;2023-02-28T09:18:39;4.50;;;1.35;;
7605;SDS011;3844;53.360;9.738;2023-02-28T09:20:43;4.63;;;1.20;;
7605;SDS011;3844;53.360;9.738;2023-02-28T09:22:44;4.07;;;1.40;;
7605;SDS011;3844;53.360;9.738;2023-02-28T09:24:45;4.15;;;1.20;;
7605;SDS011;3844;53.360;9.738;2023-02-28T09:26:46;3.35;;;1.00;;
7605;SDS011;3844;53.360;9.738;2023-02-28T09:28:46;2.85;;;0.80;;
7605;SDS011;3844;53.360;9.738;2023-02-28T09:30:48;3.90;;;0.88;;
7605;SDS011;3844;53.360;9.738;2023-02-28T09:32:51;3.33;;;1.02;;
7605;SDS011;3844;53.360;9.738;2023-02-28T09:34:53;3.95;;;1.02;;
7605;SDS011;3844;53.360;9.738;2023-02-28T09:36:54;3.42;;;0.85;;
7605;SDS011;3844;53.360;9.738;2023-02-28T09:38:55;3.45;;;0.80;;
7605;SDS011;3844;53.360;9.738;2023-02-28T09:40:56;2.55;;;0.90;;
7605;SDS011;3844;53.360;9.738;2023-02-28T09:42:59;3.35;;;0.80;;
7605;SDS011;3844;53.360;9.738;2023-02-28T09:45:00;2.50;;;0.65;;
7605;SDS011;3844;53.360;9.738;2023-02-28T09:47:25;2.33;;;0.82;;
7605;SDS011;3844;53.360;9.738;2023-02-28T09:49:33;1.98;;;0.60;;
7605;SDS011;3844;53.360;9.738;2023-02-28T09:51:44;2.22;;;0.52;;
7605;SDS011;3844;53.360;9.738;2023-02-28T09:53:55;1.60;;;0.60;;
7605;SDS011;3844;53.360;9.738;2023-02-28T09:56:01;2.33;;;0.70;;
7605;SDS011;3844;53.360;9.738;2023-02-28T09:58:04;2.35;;;0.80;;
7605;SDS011;3844;53.360;9.738;2023-02-28T10:00:34;3.40;;;0.80;;
7605;SDS011;3844;53.360;9.738;2023-02-28T10:02:51;2.65;;;0.80;;
7605;SDS011;3844;53.360;9.738;2023-02-28T10:05:20;2.85;;;0.82;;
7605;SDS011;3844;53.360;9.738;2023-02-28T10:07:36;2.08;;;0.60;;
7605;SDS011;3844;53.360;9.738;2023-02-28T10:09:49;2.83;;;0.70;;
7605;SDS011;3844;53.360;9.738;2023-02-28T10:11:56;3.10;;;0.80;;
7605;SDS011;3844;53.360;9.738;2023-02-28T10:16:15;2.42;;;0.68;;
7605;SDS011;3844;53.360;9.738;2023-02-28T10:18:22;3.53;;;0.98;;
7605;SDS011;3844;53.360;9.738;2023-02-28T10:20:27;3.28;;;1.20;;
7605;SDS011;3844;53.360;9.738;2023-02-28T10:24:57;2.72;;;0.98;;
7605;SDS011;3844;53.360;9.738;2023-02-28T10:27:19;3.20;;;0.93;;
7605;SDS011;3844;53.360;9.738;2023-02-28T10:29:21;5.18;;;1.50;;
7605;SDS011;3844;53.360;9.738;2023-02-28T10:31:22;5.97;;;1.48;;
7605;SDS011;3844;53.360;9.738;2023-02-28T10:33:24;3.47;;;1.00;;
7605;SDS011;3844;53.360;9.738;2023-02-28T10:35:31;4.28;;;1.10;;
7605;SDS011;3844;53.360;9.738;2023-02-28T10:37:33;3.30;;;1.05;;
7605;SDS011;3844;53.360;9.738;2023-02-28T10:39:40;3.63;;;1.15;;
7605;SDS011;3844;53.360;9.738;2023-02-28T10:41:42;3.80;;;1.40;;
7605;SDS011;3844;53.360;9.738;2023-02-28T10:43:43;3.33;;;1.50;;
7605;SDS011;3844;53.360;9.738;2023-02-28T10:52:40;3.92;;;1.33;;
7605;SDS011;3844;53.360;9.738;2023-02-28T10:54:42;4.63;;;1.60;;
7605;SDS011;3844;53.360;9.738;2023-02-28T10:56:43;3.22;;;1.20;;
7605;SDS011;3844;53.360;9.738;2023-02-28T10:58:51;3.58;;;1.30;;
7605;SDS011;3844;53.360;9.738;2023-02-28T11:00:52;3.65;;;1.35;;
7605;SDS011;3844;53.360;9.738;2023-02-28T11:02:53;3.00;;;1.05;;
7605;SDS011;3844;53.360;9.738;2023-02-28T11:04:54;3.03;;;1.20;;
7605;SDS011;3844;53.360;9.738;2023-02-28T11:06:59;4.07;;;1.15;;
7605;SDS011;3844;53.360;9.738;2023-02-28T11:09:51;3.17;;;1.15;;
7605;SDS011;3844;53.360;9.738;2023-02-28T11:11:45;3.08;;;1.10;;
7605;SDS011;3844;53.360;9.738;2023-02-28T11:13:47;3.78;;;1.20;;
7605;SDS011;3844;53.360;9.738;2023-02-28T11:15:57;4.45;;;1.30;;
7605;SDS011;3844;53.360;9.738;2023-02-28T11:18:02;3.45;;;1.20;;
7605;SDS011;3844;53.360;9.738;2023-02-28T11:20:06;3.10;;;1.08;;
7605;SDS011;3844;53.360;9.738;2023-02-28T11:22:24;3.45;;;1.30;;
7605;SDS011;3844;53.360;9.738;2023-02-28T11:24:35;4.07;;;1.30;;
7605;SDS011;3844;53.360;9.738;2023-02-28T11:26:45;3.28;;;1.10;;
7605;SDS011;3844;53.360;9.738;2023-02-28T11:28:48;2.92;;;1.05;;
7605;SDS011;3844;53.360;9.738;2023-02-28T11:33:18;4.30;;;1.20;;
7605;SDS011;3844;53.360;9.738;2023-02-28T11:35:44;3.90;;;1.10;;
7605;SDS011;3844;53.360;9.738;2023-02-28T11:37:48;3.42;;;1.10;;
7605;SDS011;3844;53.360;9.738;2023-02-28T11:39:48;4.43;;;1.17;;
7605;SDS011;3844;53.360;9.738;2023-02-28T11:55:42;3.35;;;1.05;;
7605;SDS011;3844;53.360;9.738;2023-02-28T12:16:32;2.63;;;0.90;;
7605;SDS011;3844;53.360;9.738;2023-02-28T12:20:55;3.58;;;1.00;;
7605;SDS011;3844;53.360;9.738;2023-02-28T12:25:34;3.15;;;1.05;;
7605;SDS011;3844;53.360;9.738;2023-02-28T12:27:48;4.00;;;1.00;;
7605;SDS011;3844;53.360;9.738;2023-02-28T12:29:56;3.22;;;0.93;;
7605;SDS011;3844;53.360;9.738;2023-02-28T12:34:06;3.42;;;1.10;;
7605;SDS011;3844;53.360;9.738;2023-02-28T12:36:21;4.30;;;1.10;;
7605;SDS011;3844;53.360;9.738;2023-02-28T12:42:47;3.13;;;1.10;;
7605;SDS011;3844;53.360;9.738;2023-02-28T12:47:14;3.33;;;1.00;;
7605;SDS011;3844;53.360;9.738;2023-02-28T12:51:24;2.78;;;0.93;;
7605;SDS011;3844;53.360;9.738;2023-02-28T13:00:28;4.32;;;1.20;;
7605;SDS011;3844;53.360;9.738;2023-02-28T13:05:06;3.50;;;1.10;;
7605;SDS011;3844;53.360;9.738;2023-02-28T13:09:40;2.47;;;0.82;;
7605;SDS011;3844;53.360;9.738;2023-02-28T13:11:45;4.15;;;1.45;;
7605;SDS011;3844;53.360;9.738;2023-02-28T13:13:46;4.03;;;1.20;;
7605;SDS011;3844;53.360;9.738;2023-02-28T13:16:20;2.83;;;1.10;;
7605;SDS011;3844;53.360;9.738;2023-02-28T13:18:33;3.90;;;1.20;;
7605;SDS011;3844;53.360;9.738;2023-02-28T13:20:37;4.10;;;1.13;;
7605;SDS011;3844;53.360;9.738;2023-02-28T13:22:49;3.28;;;1.10;;
7605;SDS011;3844;53.360;9.738;2023-02-28T13:24:53;4.25;;;1.00;;
7605;SDS011;3844;53.360;9.738;2023-02-28T13:31:15;3.63;;;1.10;;
7605;SDS011;3844;53.360;9.738;2023-02-28T13:33:22;3.67;;;1.20;;
7605;SDS011;3844;53.360;9.738;2023-02-28T13:35:35;3.30;;;1.20;;
7605;SDS011;3844;53.360;9.738;2023-02-28T13:37:46;3.40;;;1.02;;
7605;SDS011;3844;53.360;9.738;2023-02-28T13:40:06;5.10;;;1.30;;
7605;SDS011;3844;53.360;9.738;2023-02-28T13:42:23;4.13;;;1.20;;
7605;SDS011;3844;53.360;9.738;2023-02-28T13:44:47;4.13;;;1.00;;
7605;SDS011;3844;53.360;9.738;2023-02-28T13:47:24;2.70;;;1.05;;
7605;SDS011;3844;53.360;9.738;2023-02-28T13:49:52;3.58;;;1.25;;
7605;SDS011;3844;53.360;9.738;2023-02-28T13:53:59;2.90;;;1.02;;
7605;SDS011;3844;53.360;9.738;2023-02-28T14:03:12;3.90;;;1.02;;
7605;SDS011;3844;53.360;9.738;2023-02-28T14:05:17;3.40;;;1.00;;
7605;SDS011;3844;53.360;9.738;2023-02-28T14:07:22;2.75;;;0.98;;
7605;SDS011;3844;53.360;9.738;2023-02-28T14:09:30;3.80;;;1.10;;
7605;SDS011;3844;53.360;9.738;2023-02-28T14:13:37;3.78;;;1.10;;
7605;SDS011;3844;53.360;9.738;2023-02-28T14:15:47;5.47;;;1.20;;
7605;SDS011;3844;53.360;9.738;2023-02-28T14:17:55;3.15;;;1.15;;
7605;SDS011;3844;53.360;9.738;2023-02-28T14:19:58;3.33;;;1.10;;
7605;SDS011;3844;53.360;9.738;2023-02-28T14:31:43;3.53;;;1.20;;
7605;SDS011;3844;53.360;9.738;2023-02-28T14:38:34;2.80;;;1.10;;
7605;SDS011;3844;53.360;9.738;2023-02-28T14:40:45;4.60;;;1.27;;
7605;SDS011;3844;53.360;9.738;2023-02-28T14:42:54;4.03;;;1.35;;
7605;SDS011;3844;53.360;9.738;2023-02-28T14:45:00;4.50;;;1.40;;
7605;SDS011;3844;53.360;9.738;2023-02-28T14:47:01;4.28;;;1.30;;
7605;SDS011;3844;53.360;9.738;2023-02-28T14:49:07;4.65;;;1.27;;
7605;SDS011;3844;53.360;9.738;2023-02-28T14:51:27;3.83;;;1.25;;
7605;SDS011;3844;53.360;9.738;2023-02-28T14:53:29;3.72;;;1.30;;
7605;SDS011;3844;53.360;9.738;2023-02-28T14:55:36;2.92;;;1.10;;
7605;SDS011;3844;53.360;9.738;2023-02-28T14:57:40;3.45;;;1.10;;
7605;SDS011;3844;53.360;9.738;2023-02-28T14:59:57;4.57;;;1.15;;
7605;SDS011;3844;53.360;9.738;2023-02-28T15:04:25;4.32;;;1.10;;
7605;SDS011;3844;53.360;9.738;2023-02-28T15:06:27;3.33;;;1.10;;
7605;SDS011;3844;53.360;9.738;2023-02-28T15:08:28;3.63;;;0.90;;
7605;SDS011;3844;53.360;9.738;2023-02-28T15:10:31;2.72;;;0.98;;
7605;SDS011;3844;53.360;9.738;2023-02-28T15:12:34;2.50;;;1.00;;
7605;SDS011;3844;53.360;9.738;2023-02-28T15:14:35;3.30;;;0.90;;
7605;SDS011;3844;53.360;9.738;2023-02-28T15:16:39;2.33;;;0.90;;
7605;SDS011;3844;53.360;9.738;2023-02-28T15:18:48;2.85;;;0.90;;
7605;SDS011;3844;53.360;9.738;2023-02-28T15:20:52;3.50;;;1.10;;